sensor_id;sensor_type;location;lat;lon;timestamp;temperature;humidity
2855;DHT22;1435;49.472;10.940;2023-03-23T00:03:16;11.90;99.90
2855;DHT22;1435;49.472;10.940;2023-03-23T00:08:17;11.90;99.90
2855;DHT22;1435;49.472;10.940;2023-03-23T00:13:23;11.90;99.90
2855;DHT22;1435;49.472;10.940;2023-03-23T00:18:24;11.90;99.90
2855;DHT22;1435;49.472;10.940;2023-03-23T00:23:26;11.90;99.90
2855;DHT22;1435;49.472;10.940;2023-03-23T00:28:30;11.70;99.90
2855;DHT22;1435;49.472;10.940;2023-03-23T00:33:34;11.70;99.90
2855;DHT22;1435;49.472;10.940;2023-03-23T00:38:39;11.60;99.90
2855;DHT22;1435;49.472;10.940;2023-03-23T00:43:43;11.80;99.90
2855;DHT22;1435;49.472;10.940;2023-03-23T00:48:45;11.90;99.90
2855;DHT22;1435;49.472;10.940;2023-03-23T00:53:47;12.00;99.90
2855;DHT22;1435;49.472;10.940;2023-03-23T00:58:50;12.00;99.90
2855;DHT22;1435;49.472;10.940;2023-03-23T01:03:51;12.10;99.90
2855;DHT22;1435;49.472;10.940;2023-03-23T01:09:01;12.20;99.90
2855;DHT22;1435;49.472;10.940;2023-03-23T01:14:05;12.30;99.90
2855;DHT22;1435;49.472;10.940;2023-03-23T01:19:08;12.30;99.90
2855;DHT22;1435;49.472;10.940;2023-03-23T01:24:10;12.40;99.90
2855;DHT22;1435;49.472;10.940;2023-03-23T01:29:13;12.40;99.90
2855;DHT22;1435;49.472;10.940;2023-03-23T01:34:15;12.40;99.90
2855;DHT22;1435;49.472;10.940;2023-03-23T01:39:17;12.40;99.90
2855;DHT22;1435;49.472;10.940;2023-03-23T01:50:00;12.50;99.90
2855;DHT22;1435;49.472;10.940;2023-03-23T01:55:02;12.50;99.90
2855;DHT22;1435;49.472;10.940;2023-03-23T02:00:06;12.40;99.90
2855;DHT22;1435;49.472;10.940;2023-03-23T02:05:20;12.40;99.90
2855;DHT22;1435;49.472;10.940;2023-03-23T02:10:23;12.40;99.90
2855;DHT22;1435;49.472;10.940;2023-03-23T02:15:28;12.40;99.90
2855;DHT22;1435;49.472;10.940;2023-03-23T02:20:44;12.50;99.90
2855;DHT22;1435;49.472;10.940;2023-03-23T02:25:58;12.50;99.90
2855;DHT22;1435;49.472;10.940;2023-03-23T02:31:21;12.60;99.90
2855;DHT22;1435;49.472;10.940;2023-03-23T02:36:33;12.60;99.90
2855;DHT22;1435;49.472;10.940;2023-03-23T02:41:41;12.60;99.90
2855;DHT22;1435;49.472;10.940;2023-03-23T02:46:44;12.70;99.90
2855;DHT22;1435;49.472;10.940;2023-03-23T02:51:48;12.70;99.90
2855;DHT22;1435;49.472;10.940;2023-03-23T02:56:51;12.70;99.90
2855;DHT22;1435;49.472;10.940;2023-03-23T03:02:07;12.70;99.90
2855;DHT22;1435;49.472;10.940;2023-03-23T03:07:31;12.70;99.90
2855;DHT22;1435;49.472;10.940;2023-03-23T03:12:42;12.70;99.90
2855;DHT22;1435;49.472;10.940;2023-03-23T03:17:51;12.70;99.90
2855;DHT22;1435;49.472;10.940;2023-03-23T03:22:56;12.80;99.90
2855;DHT22;1435;49.472;10.940;2023-03-23T03:27:58;12.80;99.90
2855;DHT22;1435;49.472;10.940;2023-03-23T03:33:00;12.80;99.90
2855;DHT22;1435;49.472;10.940;2023-03-23T03:38:09;12.90;99.90
2855;DHT22;1435;49.472;10.940;2023-03-23T03:43:11;13.00;99.90
2855;DHT22;1435;49.472;10.940;2023-03-23T03:48:13;13.00;99.90
2855;DHT22;1435;49.472;10.940;2023-03-23T03:53:16;13.00;99.90
2855;DHT22;1435;49.472;10.940;2023-03-23T03:58:18;13.00;99.90
2855;DHT22;1435;49.472;10.940;2023-03-23T04:03:19;13.00;99.90
2855;DHT22;1435;49.472;10.940;2023-03-23T04:08:23;13.00;99.90
2855;DHT22;1435;49.472;10.940;2023-03-23T04:13:24;13.10;99.90
2855;DHT22;1435;49.472;10.940;2023-03-23T04:18:26;13.10;99.90
2855;DHT22;1435;49.472;10.940;2023-03-23T04:23:31;13.10;99.90
2855;DHT22;1435;49.472;10.940;2023-03-23T04:28:35;13.00;99.90
2855;DHT22;1435;49.472;10.940;2023-03-23T04:33:39;13.10;99.90
2855;DHT22;1435;49.472;10.940;2023-03-23T04:38:42;13.10;99.90
2855;DHT22;1435;49.472;10.940;2023-03-23T04:43:45;13.20;99.90
2855;DHT22;1435;49.472;10.940;2023-03-23T04:48:52;13.20;99.90
2855;DHT22;1435;49.472;10.940;2023-03-23T04:53:56;13.20;99.90
2855;DHT22;1435;49.472;10.940;2023-03-23T04:58:58;13.30;99.90
2855;DHT22;1435;49.472;10.940;2023-03-23T05:04:01;13.30;99.90
2855;DHT22;1435;49.472;10.940;2023-03-23T05:09:04;13.20;99.90
2855;DHT22;1435;49.472;10.940;2023-03-23T05:14:06;13.20;99.90
2855;DHT22;1435;49.472;10.940;2023-03-23T05:19:08;13.20;99.90
2855;DHT22;1435;49.472;10.940;2023-03-23T05:24:11;13.20;99.90
2855;DHT22;1435;49.472;10.940;2023-03-23T05:29:12;13.20;99.90
2855;DHT22;1435;49.472;10.940;2023-03-23T05:34:14;13.20;99.90
2855;DHT22;1435;49.472;10.940;2023-03-23T05:39:18;13.20;99.90
2855;DHT22;1435;49.472;10.940;2023-03-23T05:44:20;13.20;99.90
2855;DHT22;1435;49.472;10.940;2023-03-23T05:49:22;13.20;99.90
2855;DHT22;1435;49.472;10.940;2023-03-23T05:54:26;13.20;99.90
2855;DHT22;1435;49.472;10.940;2023-03-23T05:59:28;13.20;99.90
2855;DHT22;1435;49.472;10.940;2023-03-23T06:04:29;13.20;99.90
2855;DHT22;1435;49.472;10.940;2023-03-23T06:09:35;13.20;99.90
2855;DHT22;1435;49.472;10.940;2023-03-23T06:14:37;13.20;99.90
2855;DHT22;1435;49.472;10.940;2023-03-23T06:19:39;13.20;99.90
2855;DHT22;1435;49.472;10.940;2023-03-23T06:24:43;13.20;99.90
2855;DHT22;1435;49.472;10.940;2023-03-23T06:29:45;13.20;99.90
2855;DHT22;1435;49.472;10.940;2023-03-23T06:34:47;13.20;99.90
2855;DHT22;1435;49.472;10.940;2023-03-23T06:39:50;13.30;99.90
2855;DHT22;1435;49.472;10.940;2023-03-23T06:44:52;13.30;99.90
2855;DHT22;1435;49.472;10.940;2023-03-23T06:49:57;13.30;99.90
2855;DHT22;1435;49.472;10.940;2023-03-23T06:55:00;13.30;99.90
2855;DHT22;1435;49.472;10.940;2023-03-23T07:00:02;13.40;99.90
2855;DHT22;1435;49.472;10.940;2023-03-23T07:05:13;13.40;99.90
2855;DHT22;1435;49.472;10.940;2023-03-23T07:10:17;13.50;99.90
2855;DHT22;1435;49.472;10.940;2023-03-23T07:15:19;13.50;99.90
2855;DHT22;1435;49.472;10.940;2023-03-23T07:20:22;13.60;99.90
2855;DHT22;1435;49.472;10.940;2023-03-23T07:25:25;13.70;99.90
2855;DHT22;1435;49.472;10.940;2023-03-23T07:30:27;13.70;99.90
2855;DHT22;1435;49.472;10.940;2023-03-23T07:35:30;13.80;99.90
2855;DHT22;1435;49.472;10.940;2023-03-23T07:40:33;13.90;99.90
2855;DHT22;1435;49.472;10.940;2023-03-23T07:45:34;13.90;99.90
2855;DHT22;1435;49.472;10.940;2023-03-23T07:50:36;13.90;99.90
2855;DHT22;1435;49.472;10.940;2023-03-23T07:55:39;14.00;99.90
2855;DHT22;1435;49.472;10.940;2023-03-23T08:00:41;14.10;99.90
2855;DHT22;1435;49.472;10.940;2023-03-23T08:05:44;14.10;99.90
2855;DHT22;1435;49.472;10.940;2023-03-23T08:10:47;14.20;99.90
2855;DHT22;1435;49.472;10.940;2023-03-23T08:15:51;14.30;99.90
2855;DHT22;1435;49.472;10.940;2023-03-23T08:20:53;14.30;99.90
2855;DHT22;1435;49.472;10.940;2023-03-23T08:25:57;14.30;99.90
2855;DHT22;1435;49.472;10.940;2023-03-23T08:30:59;14.30;99.90
2855;DHT22;1435;49.472;10.940;2023-03-23T08:36:01;14.40;99.90
2855;DHT22;1435;49.472;10.940;2023-03-23T08:41:06;14.40;99.90
2855;DHT22;1435;49.472;10.940;2023-03-23T08:46:07;14.40;99.90
2855;DHT22;1435;49.472;10.940;2023-03-23T08:51:10;14.50;99.90
2855;DHT22;1435;49.472;10.940;2023-03-23T08:56:14;14.50;99.90
2855;DHT22;1435;49.472;10.940;2023-03-23T09:01:15;14.60;99.90
2855;DHT22;1435;49.472;10.940;2023-03-23T09:06:17;14.60;99.90
2855;DHT22;1435;49.472;10.940;2023-03-23T09:11:21;14.70;99.90
2855;DHT22;1435;49.472;10.940;2023-03-23T09:16:22;14.80;99.90
2855;DHT22;1435;49.472;10.940;2023-03-23T09:21:25;14.80;99.90
2855;DHT22;1435;49.472;10.940;2023-03-23T09:26:28;14.80;99.90
2855;DHT22;1435;49.472;10.940;2023-03-23T09:31:30;14.90;99.90
2855;DHT22;1435;49.472;10.940;2023-03-23T09:36:32;14.90;99.90
2855;DHT22;1435;49.472;10.940;2023-03-23T09:41:49;14.90;99.90
2855;DHT22;1435;49.472;10.940;2023-03-23T09:46:59;15.00;99.90
2855;DHT22;1435;49.472;10.940;2023-03-23T09:52:08;15.00;99.90
2855;DHT22;1435;49.472;10.940;2023-03-23T09:57:16;15.10;99.90
2855;DHT22;1435;49.472;10.940;2023-03-23T10:02:24;15.20;99.90
2855;DHT22;1435;49.472;10.940;2023-03-23T10:07:28;15.20;99.90
2855;DHT22;1435;49.472;10.940;2023-03-23T10:12:36;15.20;99.90
2855;DHT22;1435;49.472;10.940;2023-03-23T10:17:52;15.30;99.90
2855;DHT22;1435;49.472;10.940;2023-03-23T10:23:04;15.30;99.90
2855;DHT22;1435;49.472;10.940;2023-03-23T10:28:11;15.30;99.90
2855;DHT22;1435;49.472;10.940;2023-03-23T10:33:28;15.30;99.90
2855;DHT22;1435;49.472;10.940;2023-03-23T10:38:35;15.20;99.90
2855;DHT22;1435;49.472;10.940;2023-03-23T10:43:39;15.20;99.90
2855;DHT22;1435;49.472;10.940;2023-03-23T10:48:41;15.20;99.90
2855;DHT22;1435;49.472;10.940;2023-03-23T10:53:49;15.10;99.90
2855;DHT22;1435;49.472;10.940;2023-03-23T10:58:52;15.10;99.90
2855;DHT22;1435;49.472;10.940;2023-03-23T11:03:54;15.00;99.90
2855;DHT22;1435;49.472;10.940;2023-03-23T11:08:58;15.10;99.90
2855;DHT22;1435;49.472;10.940;2023-03-23T11:14:14;15.10;99.90
2855;DHT22;1435;49.472;10.940;2023-03-23T11:19:22;15.10;99.90
2855;DHT22;1435;49.472;10.940;2023-03-23T11:24:25;15.10;99.90
2855;DHT22;1435;49.472;10.940;2023-03-23T11:29:30;15.00;99.90
2855;DHT22;1435;49.472;10.940;2023-03-23T11:34:33;15.10;99.90
2855;DHT22;1435;49.472;10.940;2023-03-23T11:39:47;15.00;99.90
2855;DHT22;1435;49.472;10.940;2023-03-23T11:44:50;14.90;99.90
2855;DHT22;1435;49.472;10.940;2023-03-23T11:49:55;15.00;99.90
2855;DHT22;1435;49.472;10.940;2023-03-23T11:55:04;15.00;99.90
2855;DHT22;1435;49.472;10.940;2023-03-23T12:00:17;15.10;99.90
2855;DHT22;1435;49.472;10.940;2023-03-23T12:05:40;15.20;99.90
2855;DHT22;1435;49.472;10.940;2023-03-23T12:10:49;15.20;99.90
2855;DHT22;1435;49.472;10.940;2023-03-23T12:16:04;15.10;99.90
2855;DHT22;1435;49.472;10.940;2023-03-23T12:21:15;15.20;99.90
2855;DHT22;1435;49.472;10.940;2023-03-23T12:26:22;15.30;99.90
2855;DHT22;1435;49.472;10.940;2023-03-23T12:31:36;15.30;99.90
2855;DHT22;1435;49.472;10.940;2023-03-23T12:36:53;15.40;99.90
2855;DHT22;1435;49.472;10.940;2023-03-23T12:42:03;15.40;99.90
2855;DHT22;1435;49.472;10.940;2023-03-23T12:47:25;15.40;99.90
2855;DHT22;1435;49.472;10.940;2023-03-23T12:52:38;15.50;99.90
2855;DHT22;1435;49.472;10.940;2023-03-23T12:57:47;15.40;99.90
2855;DHT22;1435;49.472;10.940;2023-03-23T13:02:58;15.50;99.90
2855;DHT22;1435;49.472;10.940;2023-03-23T13:08:04;15.60;99.90
2855;DHT22;1435;49.472;10.940;2023-03-23T13:13:12;15.70;99.90
2855;DHT22;1435;49.472;10.940;2023-03-23T13:18:34;15.60;99.90
2855;DHT22;1435;49.472;10.940;2023-03-23T13:23:41;15.70;99.90
2855;DHT22;1435;49.472;10.940;2023-03-23T13:28:54;15.80;99.90
2855;DHT22;1435;49.472;10.940;2023-03-23T13:34:01;15.80;99.90
2855;DHT22;1435;49.472;10.940;2023-03-23T13:39:06;15.70;99.90
2855;DHT22;1435;49.472;10.940;2023-03-23T13:44:18;15.60;99.90
2855;DHT22;1435;49.472;10.940;2023-03-23T13:49:22;15.80;99.90
2855;DHT22;1435;49.472;10.940;2023-03-23T13:54:31;15.80;99.90
2855;DHT22;1435;49.472;10.940;2023-03-23T13:59:35;15.80;99.90
2855;DHT22;1435;49.472;10.940;2023-03-23T14:04:38;15.80;99.90
2855;DHT22;1435;49.472;10.940;2023-03-23T14:09:42;16.00;99.90
2855;DHT22;1435;49.472;10.940;2023-03-23T14:14:47;16.00;99.90
2855;DHT22;1435;49.472;10.940;2023-03-23T14:19:53;16.00;99.90
2855;DHT22;1435;49.472;10.940;2023-03-23T14:25:00;16.10;99.90
2855;DHT22;1435;49.472;10.940;2023-03-23T14:30:07;16.10;99.90
2855;DHT22;1435;49.472;10.940;2023-03-23T14:35:17;16.10;99.90
2855;DHT22;1435;49.472;10.940;2023-03-23T14:40:21;16.20;99.90
2855;DHT22;1435;49.472;10.940;2023-03-23T14:45:24;16.10;99.90
2855;DHT22;1435;49.472;10.940;2023-03-23T14:50:30;16.10;99.90
2855;DHT22;1435;49.472;10.940;2023-03-23T14:55:32;16.00;99.90
2855;DHT22;1435;49.472;10.940;2023-03-23T15:00:37;16.10;99.90
2855;DHT22;1435;49.472;10.940;2023-03-23T15:05:44;16.10;99.90
2855;DHT22;1435;49.472;10.940;2023-03-23T15:10:54;16.00;99.90
2855;DHT22;1435;49.472;10.940;2023-03-23T15:16:05;16.00;99.90
2855;DHT22;1435;49.472;10.940;2023-03-23T15:21:21;16.00;99.90
2855;DHT22;1435;49.472;10.940;2023-03-23T15:26:30;16.00;99.90
2855;DHT22;1435;49.472;10.940;2023-03-23T15:31:32;16.00;99.90
2855;DHT22;1435;49.472;10.940;2023-03-23T15:36:35;15.90;99.90
2855;DHT22;1435;49.472;10.940;2023-03-23T15:41:46;16.00;99.90
2855;DHT22;1435;49.472;10.940;2023-03-23T15:46:50;16.10;99.90
2855;DHT22;1435;49.472;10.940;2023-03-23T15:51:53;16.10;99.90
2855;DHT22;1435;49.472;10.940;2023-03-23T15:56:55;16.10;99.90
2855;DHT22;1435;49.472;10.940;2023-03-23T16:01:57;16.20;99.90
2855;DHT22;1435;49.472;10.940;2023-03-23T16:07:00;16.10;99.90
2855;DHT22;1435;49.472;10.940;2023-03-23T16:12:02;16.20;99.90
2855;DHT22;1435;49.472;10.940;2023-03-23T16:17:04;16.20;99.90
2855;DHT22;1435;49.472;10.940;2023-03-23T16:22:07;16.30;99.90
2855;DHT22;1435;49.472;10.940;2023-03-23T16:27:10;16.20;99.90
2855;DHT22;1435;49.472;10.940;2023-03-23T16:32:12;16.30;99.90
2855;DHT22;1435;49.472;10.940;2023-03-23T16:37:15;16.30;99.90
2855;DHT22;1435;49.472;10.940;2023-03-23T16:42:17;16.30;99.90
2855;DHT22;1435;49.472;10.940;2023-03-23T16:47:19;16.30;99.90
2855;DHT22;1435;49.472;10.940;2023-03-23T16:52:24;16.30;99.90
2855;DHT22;1435;49.472;10.940;2023-03-23T16:57:25;16.30;99.90
2855;DHT22;1435;49.472;10.940;2023-03-23T17:02:28;16.40;99.90
2855;DHT22;1435;49.472;10.940;2023-03-23T17:07:31;16.30;99.90
2855;DHT22;1435;49.472;10.940;2023-03-23T17:12:33;16.30;99.90
2855;DHT22;1435;49.472;10.940;2023-03-23T17:17:35;16.30;99.90
2855;DHT22;1435;49.472;10.940;2023-03-23T17:22:39;16.30;99.90
2855;DHT22;1435;49.472;10.940;2023-03-23T17:27:41;16.30;99.90
2855;DHT22;1435;49.472;10.940;2023-03-23T17:32:43;16.30;99.90
2855;DHT22;1435;49.472;10.940;2023-03-23T17:37:48;16.20;99.90
2855;DHT22;1435;49.472;10.940;2023-03-23T17:42:49;16.20;99.90
2855;DHT22;1435;49.472;10.940;2023-03-23T17:47:51;16.20;99.90
2855;DHT22;1435;49.472;10.940;2023-03-23T17:52:54;16.10;99.90
2855;DHT22;1435;49.472;10.940;2023-03-23T17:57:57;16.10;99.90
2855;DHT22;1435;49.472;10.940;2023-03-23T18:02:59;16.00;99.90
2855;DHT22;1435;49.472;10.940;2023-03-23T18:08:02;15.90;99.90
2855;DHT22;1435;49.472;10.940;2023-03-23T18:13:05;15.80;99.90
2855;DHT22;1435;49.472;10.940;2023-03-23T18:18:07;15.80;99.90
2855;DHT22;1435;49.472;10.940;2023-03-23T18:23:11;15.70;99.90
2855;DHT22;1435;49.472;10.940;2023-03-23T18:28:12;15.70;99.90
2855;DHT22;1435;49.472;10.940;2023-03-23T18:33:17;15.60;99.90
2855;DHT22;1435;49.472;10.940;2023-03-23T18:38:20;15.40;99.90
2855;DHT22;1435;49.472;10.940;2023-03-23T18:43:23;15.30;99.90
2855;DHT22;1435;49.472;10.940;2023-03-23T18:48:25;15.30;99.90
2855;DHT22;1435;49.472;10.940;2023-03-23T18:53:28;15.10;99.90
2855;DHT22;1435;49.472;10.940;2023-03-23T18:58:31;15.10;99.90
2855;DHT22;1435;49.472;10.940;2023-03-23T19:03:34;15.00;99.90
2855;DHT22;1435;49.472;10.940;2023-03-23T19:08:37;14.90;99.90
2855;DHT22;1435;49.472;10.940;2023-03-23T19:13:39;14.80;99.90
2855;DHT22;1435;49.472;10.940;2023-03-23T19:18:41;14.60;99.90
2855;DHT22;1435;49.472;10.940;2023-03-23T19:23:44;14.50;99.90
2855;DHT22;1435;49.472;10.940;2023-03-23T19:28:46;14.50;99.90
2855;DHT22;1435;49.472;10.940;2023-03-23T19:33:48;14.40;99.90
2855;DHT22;1435;49.472;10.940;2023-03-23T19:38:52;14.30;99.90
2855;DHT22;1435;49.472;10.940;2023-03-23T19:43:53;14.20;99.90
2855;DHT22;1435;49.472;10.940;2023-03-23T19:48:55;14.10;99.90
2855;DHT22;1435;49.472;10.940;2023-03-23T19:53:58;14.00;99.90
2855;DHT22;1435;49.472;10.940;2023-03-23T19:59:00;13.90;99.90
2855;DHT22;1435;49.472;10.940;2023-03-23T20:04:02;13.80;99.90
2855;DHT22;1435;49.472;10.940;2023-03-23T20:09:06;13.70;99.90
2855;DHT22;1435;49.472;10.940;2023-03-23T20:14:08;13.60;99.90
2855;DHT22;1435;49.472;10.940;2023-03-23T20:19:10;13.60;99.90
2855;DHT22;1435;49.472;10.940;2023-03-23T20:24:13;13.50;99.90
2855;DHT22;1435;49.472;10.940;2023-03-23T20:29:15;13.50;99.90
2855;DHT22;1435;49.472;10.940;2023-03-23T20:34:17;13.50;99.90
2855;DHT22;1435;49.472;10.940;2023-03-23T20:39:32;13.50;99.90
2855;DHT22;1435;49.472;10.940;2023-03-23T20:44:34;13.50;99.90
2855;DHT22;1435;49.472;10.940;2023-03-23T20:49:38;13.40;99.90
2855;DHT22;1435;49.472;10.940;2023-03-23T20:54:42;13.40;99.90
2855;DHT22;1435;49.472;10.940;2023-03-23T20:59:45;13.40;99.90
2855;DHT22;1435;49.472;10.940;2023-03-23T21:04:47;13.30;99.90
2855;DHT22;1435;49.472;10.940;2023-03-23T21:09:53;13.30;99.90
2855;DHT22;1435;49.472;10.940;2023-03-23T21:14:55;13.30;99.90
2855;DHT22;1435;49.472;10.940;2023-03-23T21:19:57;13.30;99.90
2855;DHT22;1435;49.472;10.940;2023-03-23T21:25:00;13.30;99.90
2855;DHT22;1435;49.472;10.940;2023-03-23T21:30:03;13.30;99.90
2855;DHT22;1435;49.472;10.940;2023-03-23T21:35:05;13.30;99.90
2855;DHT22;1435;49.472;10.940;2023-03-23T21:40:12;13.30;99.90
2855;DHT22;1435;49.472;10.940;2023-03-23T21:45:16;13.30;99.90
2855;DHT22;1435;49.472;10.940;2023-03-23T21:50:20;13.30;99.90
2855;DHT22;1435;49.472;10.940;2023-03-23T21:55:24;13.40;99.90
2855;DHT22;1435;49.472;10.940;2023-03-23T22:00:29;13.40;99.90
2855;DHT22;1435;49.472;10.940;2023-03-23T22:05:30;13.40;99.90
2855;DHT22;1435;49.472;10.940;2023-03-23T22:10:34;13.40;99.90
2855;DHT22;1435;49.472;10.940;2023-03-23T22:15:36;13.50;99.90
2855;DHT22;1435;49.472;10.940;2023-03-23T22:20:37;13.40;99.90
2855;DHT22;1435;49.472;10.940;2023-03-23T22:25:41;13.40;99.90
2855;DHT22;1435;49.472;10.940;2023-03-23T22:30:43;13.50;99.90
2855;DHT22;1435;49.472;10.940;2023-03-23T22:35:45;13.50;99.90
2855;DHT22;1435;49.472;10.940;2023-03-23T22:40:55;13.50;99.90
2855;DHT22;1435;49.472;10.940;2023-03-23T22:45:56;13.50;99.90
2855;DHT22;1435;49.472;10.940;2023-03-23T22:50:59;13.50;99.90
2855;DHT22;1435;49.472;10.940;2023-03-23T22:56:02;13.60;99.90
2855;DHT22;1435;49.472;10.940;2023-03-23T23:01:07;13.60;99.90
2855;DHT22;1435;49.472;10.940;2023-03-23T23:06:09;13.60;99.90
2855;DHT22;1435;49.472;10.940;2023-03-23T23:11:15;13.60;99.90
2855;DHT22;1435;49.472;10.940;2023-03-23T23:16:18;13.60;99.90
2855;DHT22;1435;49.472;10.940;2023-03-23T23:21:25;13.60;99.90
2855;DHT22;1435;49.472;10.940;2023-03-23T23:26:29;13.60;99.90
2855;DHT22;1435;49.472;10.940;2023-03-23T23:31:31;13.60;99.90
2855;DHT22;1435;49.472;10.940;2023-03-23T23:36:33;13.60;99.90
2855;DHT22;1435;49.472;10.940;2023-03-23T23:41:38;13.60;99.90
2855;DHT22;1435;49.472;10.940;2023-03-23T23:46:40;13.70;99.90
2855;DHT22;1435;49.472;10.940;2023-03-23T23:51:41;13.70;99.90
2855;DHT22;1435;49.472;10.940;2023-03-23T23:56:45;13.70;99.90
